Terminal Aerodrome Forecast
Issued by NWS

Home | Current Version | Previous Version | Text Only | Print | Product List | Glossary On
Versions: 1 2 3 4 5 6 7 8 9 10 11 12 13 14 15 16 17 18 19 20 21 22 23 24 25 26
000
FTUS44 KLIX 260804 AAA
TAFHUM
TAF AMD
KHUM 260804Z 2608/2706 16006KT 5SM BR OVC010
      TEMPO 2610/2614 2SM BR OVC005
     FM261500 19004KT P6SM SCT060
     FM261800 18008KT P6SM SCT130
     FM270400 16006KT P6SM BKN025=

USA.gov is the U.S. government's official web portal to all federal, state and local government web resources and services.